createdAt,value
2019-03-03T00:00:57.125Z,70.75
2019-03-03T00:03:26.933Z,71.45
2019-03-03T00:05:56.495Z,71.68
2019-03-03T00:08:26.340Z,72.70
2019-03-03T00:10:55.767Z,72.16
2019-03-03T00:13:25.166Z,72.27
2019-03-03T00:15:54.971Z,72.53
2019-03-03T00:18:24.369Z,72.51
2019-03-03T00:20:53.814Z,72.54
2019-03-03T00:23:23.897Z,72.59
2019-03-03T00:25:53.301Z,72.47
2019-03-03T00:28:24.040Z,72.33
2019-03-03T00:30:53.634Z,72.20
2019-03-03T00:33:23.179Z,72.09
2019-03-03T00:35:52.750Z,72.67
2019-03-03T00:38:37.129Z,72.52
2019-03-03T00:41:24.240Z,72.42
2019-03-03T00:44:30.805Z,72.90
2019-03-03T00:47:17.522Z,72.74
2019-03-03T00:50:11.930Z,72.54
2019-03-03T00:52:52.789Z,72.54
2019-03-03T00:55:41.286Z,72.93
2019-03-03T00:58:32.905Z,72.90
2019-03-03T01:01:15.351Z,72.99
2019-03-03T01:04:02.825Z,72.90
2019-03-03T01:07:00.420Z,73.11
2019-03-03T01:09:55.240Z,73.02
2019-03-03T01:12:34.760Z,73.07
2019-03-03T01:15:23.815Z,73.42
2019-03-03T01:18:27.151Z,72.92
2019-03-03T01:21:08.676Z,73.17
2019-03-03T01:24:06.173Z,73.07
2019-03-03T01:26:35.636Z,73.17
2019-03-03T01:29:06.294Z,73.09
2019-03-03T01:31:35.740Z,73.02
2019-03-03T01:34:05.143Z,73.10
2019-03-03T01:36:34.618Z,73.11
2019-03-03T01:39:05.157Z,72.86
2019-03-03T01:41:35.023Z,72.63
2019-03-03T01:44:04.858Z,72.79
2019-03-03T01:46:34.386Z,73.39
2019-03-03T01:49:04.424Z,73.36
2019-03-03T01:51:33.825Z,73.08
2019-03-03T01:54:03.271Z,73.19
2019-03-03T01:56:32.698Z,73.01
2019-03-03T01:59:02.085Z,72.96
2019-03-03T02:01:31.462Z,72.92
2019-03-03T02:04:01.307Z,72.99
2019-03-03T02:06:30.842Z,72.98
2019-03-03T02:09:00.320Z,72.83
2019-03-03T02:11:29.958Z,72.73
2019-03-03T02:13:59.331Z,72.84
2019-03-03T02:16:28.732Z,72.81
2019-03-03T02:18:59.200Z,72.66
2019-03-03T02:21:28.569Z,72.85
2019-03-03T02:23:58.042Z,73.05
2019-03-03T02:26:27.972Z,72.81
2019-03-03T02:28:57.765Z,73.01
2019-03-03T02:31:27.224Z,73.05
2019-03-03T02:33:56.618Z,73.06
2019-03-03T02:36:26.260Z,73.16
2019-03-03T02:38:55.627Z,73.25
2019-03-03T02:41:25.679Z,73.36
2019-03-03T02:43:55.059Z,73.34
2019-03-03T02:46:24.968Z,73.44
2019-03-03T02:48:54.654Z,73.34
2019-03-03T02:51:24.032Z,73.26
2019-03-03T02:53:53.481Z,72.78
2019-03-03T02:56:22.880Z,72.76
2019-03-03T02:58:52.256Z,73.01
2019-03-03T03:01:43.664Z,72.91
2019-03-03T03:04:13.429Z,72.86
2019-03-03T03:07:01.818Z,72.57
2019-03-03T03:09:59.399Z,72.79
2019-03-03T03:12:56.976Z,72.83
2019-03-03T03:15:45.281Z,72.65
2019-03-03T03:18:32.035Z,72.78
2019-03-03T03:21:32.309Z,72.74
2019-03-03T03:24:23.390Z,72.47
2019-03-03T03:27:07.316Z,72.47
2019-03-03T03:29:51.909Z,72.73
2019-03-03T03:32:32.932Z,72.85
2019-03-03T03:35:10.738Z,73.19
2019-03-03T03:37:59.089Z,73.86
2019-03-03T03:40:47.847Z,73.58
2019-03-03T03:43:24.312Z,73.15
2019-03-03T03:46:11.373Z,73.26
2019-03-03T03:49:02.858Z,72.48
2019-03-03T03:51:50.632Z,72.54
2019-03-03T03:54:49.692Z,72.29
2019-03-03T03:57:47.051Z,72.33
2019-03-03T04:00:41.333Z,72.15
2019-03-03T04:03:28.476Z,72.22
2019-03-03T04:06:23.390Z,72.50
2019-03-03T04:08:57.238Z,72.55
2019-03-03T04:11:39.307Z,72.33
2019-03-03T04:14:43.189Z,72.54
2019-03-03T04:17:31.478Z,72.57
2019-03-03T04:20:07.100Z,72.32
2019-03-03T04:22:55.455Z,72.27
2019-03-03T04:25:42.729Z,72.27
2019-03-03T04:28:21.963Z,72.38
2019-03-03T04:31:13.387Z,72.37
2019-03-03T04:33:58.821Z,72.29
2019-03-03T04:36:45.900Z,72.07
2019-03-03T04:39:34.418Z,72.25
2019-03-03T04:42:14.934Z,72.10
2019-03-03T04:45:01.845Z,72.40
2019-03-03T04:47:41.387Z,72.29
2019-03-03T04:50:26.226Z,72.30
2019-03-03T04:53:11.747Z,71.91
2019-03-03T04:56:06.362Z,71.64
2019-03-03T04:59:03.842Z,71.44
2019-03-03T05:01:58.210Z,71.44
2019-03-03T05:05:02.760Z,71.23
2019-03-03T05:07:58.972Z,71.30
2019-03-03T05:10:47.272Z,71.70
2019-03-03T05:13:29.570Z,71.36
2019-03-03T05:16:19.409Z,70.98
2019-03-03T05:19:13.868Z,71.03
2019-03-03T05:21:43.322Z,71.11
2019-03-03T05:24:13.684Z,71.40
2019-03-03T05:26:43.083Z,71.26
2019-03-03T05:29:12.554Z,71.02
2019-03-03T05:31:43.695Z,70.80
2019-03-03T05:34:13.465Z,70.41
2019-03-03T05:36:43.228Z,70.38
2019-03-03T05:39:12.631Z,70.29
2019-03-03T05:41:42.172Z,69.87
2019-03-03T05:44:11.922Z,69.56
2019-03-03T05:46:41.364Z,69.43
2019-03-03T05:49:10.732Z,68.97
2019-03-03T05:51:40.237Z,68.55
2019-03-03T05:54:09.697Z,68.12
2019-03-03T05:56:39.750Z,67.37
2019-03-03T05:59:09.245Z,67.00
2019-03-03T06:01:38.663Z,67.08
2019-03-03T06:04:08.121Z,67.09
2019-03-03T06:06:37.586Z,67.13
2019-03-03T06:09:07.768Z,67.19
2019-03-03T06:11:37.151Z,67.13
2019-03-03T06:14:06.580Z,66.41
2019-03-03T06:16:36.053Z,66.38
2019-03-03T06:19:05.421Z,65.54
2019-03-03T06:21:35.033Z,64.97
2019-03-03T06:24:04.544Z,64.66
2019-03-03T06:26:33.976Z,64.70
2019-03-03T06:29:03.413Z,65.27
2019-03-03T06:31:32.910Z,65.21
2019-03-03T06:34:02.394Z,64.83
2019-03-03T06:36:32.134Z,65.29
2019-03-03T06:39:01.822Z,65.19
2019-03-03T06:41:31.754Z,65.07
2019-03-03T06:44:01.217Z,64.62
2019-03-03T06:46:30.980Z,64.75
2019-03-03T06:49:00.464Z,64.09
2019-03-03T06:51:29.959Z,63.18
2019-03-03T06:54:00.178Z,62.38
2019-03-03T06:56:29.563Z,61.67
2019-03-03T06:58:59.328Z,61.40
2019-03-03T07:01:28.744Z,61.22
2019-03-03T07:03:58.968Z,60.99
2019-03-03T07:06:29.079Z,61.22
2019-03-03T07:08:59.468Z,61.78
2019-03-03T07:11:28.855Z,61.88
2019-03-03T07:13:58.635Z,61.83
2019-03-03T07:16:27.998Z,61.00
2019-03-03T07:18:57.746Z,61.36
2019-03-03T07:21:28.090Z,60.91
2019-03-03T07:23:57.978Z,60.78
2019-03-03T07:26:27.353Z,60.58
2019-03-03T07:28:56.862Z,60.60
2019-03-03T07:31:26.242Z,60.45
2019-03-03T07:33:58.420Z,59.69
2019-03-03T07:36:27.939Z,59.13
2019-03-03T07:38:57.372Z,58.94
2019-03-03T07:41:27.035Z,58.99
2019-03-03T07:43:56.632Z,58.97
2019-03-03T07:46:26.351Z,58.72
2019-03-03T07:48:57.096Z,58.61
2019-03-03T07:51:26.524Z,58.71
2019-03-03T07:53:57.233Z,58.62
2019-03-03T07:56:26.653Z,58.63
2019-03-03T07:58:56.038Z,58.25
2019-03-03T08:01:26.434Z,58.05
2019-03-03T08:03:56.219Z,57.73
2019-03-03T08:06:26.190Z,57.86
2019-03-03T08:08:56.061Z,58.31
2019-03-03T08:11:25.499Z,58.16
2019-03-03T08:13:54.958Z,57.92
2019-03-03T08:16:25.457Z,57.67
2019-03-03T08:18:55.314Z,57.73
2019-03-03T08:21:24.735Z,57.42
2019-03-03T08:23:54.121Z,57.19
2019-03-03T08:26:23.643Z,56.97
2019-03-03T08:28:53.045Z,56.29
2019-03-03T08:31:22.490Z,56.15
2019-03-03T08:33:51.902Z,56.99
2019-03-03T08:36:21.397Z,57.50
2019-03-03T08:38:51.670Z,57.81
2019-03-03T08:41:21.223Z,58.21
2019-03-03T08:44:00.689Z,58.25
2019-03-03T08:46:51.489Z,57.38
2019-03-03T08:49:41.788Z,55.53
2019-03-03T08:52:16.056Z,55.56
2019-03-03T08:55:09.778Z,54.64
2019-03-03T08:57:54.470Z,53.04
2019-03-03T09:00:41.225Z,49.58
2019-03-03T09:03:25.986Z,45.97
2019-03-03T09:06:15.873Z,43.86
2019-03-03T09:08:51.121Z,41.86
2019-03-03T09:11:38.438Z,37.89
2019-03-03T09:14:30.238Z,27.37
2019-03-03T09:17:20.555Z,27.37
2019-03-03T09:20:07.220Z,24.51
2019-03-03T09:22:54.187Z,21.02
2019-03-03T09:25:42.999Z,20.02
2019-03-03T09:28:43.670Z,19.46
2019-03-03T09:31:27.894Z,19.90
2019-03-03T09:34:15.007Z,23.79
2019-03-03T09:36:54.007Z,23.13
2019-03-03T09:39:48.146Z,20.55
2019-03-03T09:42:39.983Z,20.09
2019-03-03T09:45:24.655Z,16.68
2019-03-03T09:48:11.683Z,18.98
2019-03-03T09:51:15.168Z,19.29
2019-03-03T09:53:55.347Z,18.66
2019-03-03T09:56:53.258Z,17.82
2019-03-03T09:59:36.966Z,14.00
2019-03-03T10:02:40.223Z,13.39
2019-03-03T10:05:34.767Z,12.36
2019-03-03T10:08:26.766Z,14.35
2019-03-03T10:11:33.359Z,18.06
2019-03-03T10:14:11.423Z,24.41
2019-03-03T10:17:08.441Z,26.53
2019-03-03T10:19:59.582Z,30.07
2019-03-03T10:22:44.533Z,33.71
2019-03-03T10:25:38.842Z,34.74
2019-03-03T10:28:39.158Z,25.02
2019-03-03T10:31:32.152Z,27.61
2019-03-03T10:34:38.664Z,29.37
2019-03-03T10:37:27.286Z,21.92
2019-03-03T10:40:04.307Z,19.17
2019-03-03T10:42:51.549Z,18.97
2019-03-03T10:45:39.833Z,17.19
2019-03-03T10:48:46.423Z,16.14
2019-03-03T10:51:40.794Z,16.59
2019-03-03T10:54:27.476Z,15.33
2019-03-03T10:57:18.935Z,14.18
2019-03-03T11:00:07.283Z,13.31
2019-03-03T11:02:47.699Z,12.84
2019-03-03T11:05:44.922Z,11.69
2019-03-03T11:08:26.977Z,13.83
2019-03-03T11:11:07.811Z,12.40
2019-03-03T11:14:05.447Z,14.31
2019-03-03T11:17:08.991Z,14.60
2019-03-03T11:19:57.591Z,16.49
2019-03-03T11:22:33.526Z,20.27
2019-03-03T11:25:09.658Z,21.48
2019-03-03T11:27:47.880Z,21.48
2019-03-03T11:30:39.521Z,24.94
2019-03-03T11:33:36.689Z,25.99
2019-03-03T11:36:23.591Z,24.38
2019-03-03T11:39:09.739Z,26.14
2019-03-03T11:42:10.009Z,28.20
2019-03-03T11:44:59.488Z,25.29
2019-03-03T11:48:06.015Z,26.34
2019-03-03T11:50:54.342Z,26.00
2019-03-03T11:53:42.818Z,27.09
2019-03-03T11:56:43.449Z,29.37
2019-03-03T11:59:19.229Z,29.93
2019-03-03T12:02:06.260Z,32.50
2019-03-03T12:04:51.517Z,34.65
2019-03-03T12:07:51.721Z,34.00
2019-03-03T12:10:34.223Z,32.88
2019-03-03T12:13:21.329Z,33.07
2019-03-03T12:16:12.406Z,31.82
2019-03-03T12:18:59.228Z,27.13
2019-03-03T12:21:50.287Z,27.71
2019-03-03T12:24:47.712Z,26.18
2019-03-03T12:27:34.690Z,22.41
2019-03-03T12:30:41.304Z,21.27
2019-03-03T12:33:22.458Z,21.74
2019-03-03T12:36:23.119Z,20.00
2019-03-03T12:39:11.836Z,19.33
2019-03-03T12:42:09.772Z,19.39
2019-03-03T12:45:09.980Z,20.87
2019-03-03T12:47:48.983Z,20.85
2019-03-03T12:50:36.273Z,19.67
2019-03-03T12:53:15.068Z,18.96
2019-03-03T12:55:49.702Z,18.62
2019-03-03T12:58:36.863Z,19.55
2019-03-03T13:01:24.234Z,19.93
2019-03-03T13:04:18.645Z,21.73
2019-03-03T13:07:05.337Z,22.60
2019-03-03T13:09:52.145Z,28.47
2019-03-03T13:12:38.870Z,30.94
2019-03-03T13:15:17.697Z,29.10
2019-03-03T13:17:53.967Z,27.86
2019-03-03T13:20:39.936Z,27.06
2019-03-03T13:23:34.105Z,27.47
2019-03-03T13:26:21.616Z,28.84
2019-03-03T13:29:04.618Z,30.99
2019-03-03T13:31:43.828Z,33.65
2019-03-03T13:34:41.444Z,36.82
2019-03-03T13:37:28.424Z,40.21
2019-03-03T13:40:15.175Z,42.42
2019-03-03T13:43:12.827Z,45.19
2019-03-03T13:45:42.567Z,45.55
2019-03-03T13:48:12.312Z,46.38
2019-03-03T13:50:44.994Z,48.02
2019-03-03T13:53:14.885Z,49.65
2019-03-03T13:55:44.491Z,49.65
2019-03-03T13:58:13.987Z,49.74
2019-03-03T14:00:43.880Z,51.02
2019-03-03T14:03:13.477Z,51.99
2019-03-03T14:05:43.389Z,52.30
2019-03-03T14:08:12.843Z,53.40
2019-03-03T14:10:42.402Z,54.31
2019-03-03T14:13:12.090Z,54.35
2019-03-03T14:15:41.500Z,53.69
2019-03-03T14:18:11.347Z,54.77
2019-03-03T14:20:40.904Z,55.61
2019-03-03T14:23:10.382Z,56.69
2019-03-03T14:25:39.872Z,57.55
2019-03-03T14:28:09.324Z,58.76
2019-03-03T14:30:39.031Z,58.71
2019-03-03T14:33:08.424Z,58.02
2019-03-03T14:35:37.812Z,58.41
2019-03-03T14:38:07.367Z,58.19
2019-03-03T14:40:37.079Z,59.25
2019-03-03T14:43:07.205Z,58.95
2019-03-03T14:45:36.596Z,58.66
2019-03-03T14:48:06.187Z,58.66
2019-03-03T14:50:36.165Z,59.33
2019-03-03T14:53:05.636Z,58.76
2019-03-03T14:55:35.180Z,58.76
2019-03-03T14:58:04.887Z,59.79
2019-03-03T15:00:34.728Z,61.04
2019-03-03T15:03:06.323Z,61.04
2019-03-03T15:05:36.402Z,60.15
2019-03-03T15:08:06.459Z,60.15
2019-03-03T15:10:35.918Z,61.56
2019-03-03T15:13:06.355Z,63.90
2019-03-03T15:15:36.041Z,63.62
2019-03-03T15:18:05.836Z,63.62
2019-03-03T15:20:35.512Z,63.62
2019-03-03T15:23:05.516Z,63.73
2019-03-03T15:25:34.957Z,63.73
2019-03-03T15:28:04.758Z,65.61
2019-03-03T15:30:34.741Z,66.38
2019-03-03T15:33:04.532Z,66.38
2019-03-03T15:35:36.445Z,65.75
2019-03-03T15:38:06.566Z,66.54
2019-03-03T15:40:38.008Z,67.72
2019-03-03T15:43:07.393Z,67.72
2019-03-03T15:45:36.804Z,67.25
2019-03-03T15:48:06.318Z,67.33
2019-03-03T15:50:35.772Z,67.64
2019-03-03T15:53:05.247Z,67.79
2019-03-03T15:55:34.642Z,70.22
2019-03-03T15:58:04.218Z,70.22
2019-03-03T16:00:33.985Z,69.61
2019-03-03T16:03:03.439Z,70.77
2019-03-03T16:05:33.064Z,69.96
2019-03-03T16:08:03.015Z,70.02
2019-03-03T16:10:32.428Z,70.16
2019-03-03T16:13:03.778Z,71.21
2019-03-03T16:15:33.204Z,71.10
2019-03-03T16:18:02.646Z,71.15
2019-03-03T16:20:32.510Z,71.53
2019-03-03T16:23:02.182Z,71.62
2019-03-03T16:25:32.367Z,71.87
2019-03-03T16:28:01.861Z,71.78
2019-03-03T16:30:31.344Z,71.14
2019-03-03T16:33:00.728Z,71.04
2019-03-03T16:35:30.318Z,70.67
2019-03-03T16:37:59.762Z,71.43
2019-03-03T16:40:39.020Z,70.84
2019-03-03T16:43:00.416Z,71.97
2019-03-03T16:45:30.221Z,71.95
2019-03-03T16:47:59.646Z,71.61
2019-03-03T16:50:29.074Z,72.42
2019-03-03T16:52:58.603Z,72.04
2019-03-03T16:55:29.082Z,72.08
2019-03-03T16:57:58.507Z,73.16
2019-03-03T17:00:27.959Z,73.35
2019-03-03T17:02:57.541Z,72.77
2019-03-03T17:05:29.006Z,72.95
2019-03-03T17:07:58.949Z,72.62
2019-03-03T17:10:28.311Z,72.69
2019-03-03T17:12:57.914Z,72.56
2019-03-03T17:15:27.327Z,72.99
2019-03-03T17:17:57.561Z,72.87
2019-03-03T17:20:27.218Z,73.70
2019-03-03T17:22:57.102Z,74.01
2019-03-03T17:25:26.573Z,73.65
2019-03-03T17:27:56.349Z,73.28
2019-03-03T17:30:26.612Z,72.76
2019-03-03T17:32:56.471Z,73.43
2019-03-03T17:35:26.259Z,74.39
2019-03-03T17:37:56.853Z,74.65
2019-03-03T17:40:26.340Z,74.62
2019-03-03T17:42:57.078Z,75.06
2019-03-03T17:45:26.669Z,74.65
2019-03-03T17:47:56.093Z,74.31
2019-03-03T17:50:25.534Z,74.37
2019-03-03T17:52:54.905Z,75.43
2019-03-03T17:55:24.451Z,73.76
2019-03-03T17:57:54.151Z,73.87
2019-03-03T18:00:25.726Z,73.36
2019-03-03T18:02:57.670Z,73.87
2019-03-03T18:05:27.541Z,75.24
2019-03-03T18:07:57.048Z,74.96
2019-03-03T18:10:26.539Z,74.88
2019-03-03T18:12:55.964Z,74.99
2019-03-03T18:15:25.354Z,73.85
2019-03-03T18:17:54.868Z,73.35
2019-03-03T18:20:25.313Z,73.94
2019-03-03T18:22:54.991Z,73.17
2019-03-03T18:25:24.874Z,72.08
2019-03-03T18:27:54.328Z,71.67
2019-03-03T18:30:23.915Z,72.27
2019-03-03T18:32:53.349Z,71.63
2019-03-03T18:35:22.801Z,72.42
2019-03-03T18:37:52.552Z,70.86
2019-03-03T18:40:22.824Z,70.22
2019-03-03T18:42:52.336Z,70.07
2019-03-03T18:45:21.723Z,70.43
2019-03-03T18:47:51.389Z,69.85
2019-03-03T18:50:20.897Z,69.84
2019-03-03T18:52:50.278Z,70.38
2019-03-03T18:55:21.987Z,70.76
2019-03-03T18:57:52.172Z,70.89
2019-03-03T19:00:23.751Z,71.05
2019-03-03T19:02:54.384Z,70.45
2019-03-03T19:05:24.079Z,71.00
2019-03-03T19:07:53.939Z,70.69
2019-03-03T19:10:26.439Z,70.37
2019-03-03T19:12:58.083Z,70.46
2019-03-03T19:15:27.488Z,70.11
2019-03-03T19:17:57.284Z,69.12
2019-03-03T19:20:26.858Z,69.46
2019-03-03T19:22:56.212Z,69.61
2019-03-03T19:25:28.017Z,69.28
2019-03-03T19:27:57.818Z,68.66
2019-03-03T19:30:29.703Z,69.11
2019-03-03T19:33:20.946Z,69.66
2019-03-03T19:35:50.919Z,68.68
2019-03-03T19:38:22.818Z,69.10
2019-03-03T19:40:55.910Z,69.24
2019-03-03T19:43:27.926Z,69.22
2019-03-03T19:45:57.614Z,69.12
2019-03-03T19:48:27.454Z,69.32
2019-03-03T19:50:58.999Z,69.31
2019-03-03T19:53:28.540Z,69.46
2019-03-03T19:55:58.669Z,69.54
2019-03-03T19:58:28.103Z,69.20
2019-03-03T20:00:57.546Z,69.37
2019-03-03T20:03:26.945Z,69.58
2019-03-03T20:05:57.678Z,69.64
2019-03-03T20:08:27.375Z,70.45
2019-03-03T20:10:57.877Z,70.10
2019-03-03T20:13:27.256Z,70.16
2019-03-03T20:15:57.180Z,69.96
2019-03-03T20:18:27.905Z,69.79
2019-03-03T20:20:57.771Z,69.71
2019-03-03T20:23:27.256Z,70.09
2019-03-03T20:25:57.518Z,70.15
2019-03-03T20:28:28.198Z,70.35
2019-03-03T20:30:58.198Z,70.29
2019-03-03T20:33:27.645Z,70.16
2019-03-03T20:35:57.445Z,70.07
2019-03-03T20:38:27.252Z,69.89
2019-03-03T20:40:57.564Z,69.83
2019-03-03T20:43:29.639Z,70.13
2019-03-03T20:45:59.004Z,69.81
2019-03-03T20:48:28.380Z,69.67
2019-03-03T20:50:57.928Z,69.82
2019-03-03T20:53:28.229Z,70.18
2019-03-03T20:55:57.601Z,69.91
2019-03-03T20:58:27.408Z,69.50
2019-03-03T21:00:56.779Z,69.87
2019-03-03T21:03:26.151Z,69.61
2019-03-03T21:05:55.545Z,69.29
2019-03-03T21:08:25.658Z,69.26
2019-03-03T21:10:55.261Z,69.47
2019-03-03T21:13:24.706Z,69.53
2019-03-03T21:15:54.149Z,69.34
2019-03-03T21:18:23.484Z,69.04
2019-03-03T21:20:53.078Z,69.04
2019-03-03T21:23:22.479Z,69.05
2019-03-03T21:25:51.951Z,69.13
2019-03-03T21:28:21.488Z,69.50
2019-03-03T21:30:50.893Z,69.42
2019-03-03T21:33:20.517Z,69.91
2019-03-03T21:35:50.105Z,69.80
2019-03-03T21:38:20.861Z,69.69
2019-03-03T21:40:50.518Z,69.66
2019-03-03T21:43:21.288Z,69.72
2019-03-03T21:45:50.793Z,69.84
2019-03-03T21:48:20.633Z,69.79
2019-03-03T21:50:50.040Z,70.07
2019-03-03T21:53:19.419Z,70.02
2019-03-03T21:55:48.890Z,69.98
2019-03-03T21:58:18.253Z,69.75
2019-03-03T22:00:48.116Z,69.60
2019-03-03T22:03:17.994Z,69.66
2019-03-03T22:05:47.791Z,69.99
2019-03-03T22:08:17.334Z,69.98
2019-03-03T22:10:47.249Z,70.09
2019-03-03T22:15:23.692Z,70.62
2019-03-03T22:17:53.198Z,70.19
2019-03-03T22:20:22.506Z,70.49
2019-03-03T22:22:51.899Z,70.37
2019-03-03T22:25:21.411Z,70.38
2019-03-03T22:27:52.047Z,70.63
2019-03-03T22:33:16.526Z,71.23
2019-03-03T22:35:46.032Z,70.80
2019-03-03T22:38:54.740Z,70.87
2019-03-03T22:47:40.978Z,70.33
2019-03-03T22:50:51.098Z,70.41
2019-03-03T22:56:16.422Z,70.43
2019-03-03T22:58:45.805Z,70.80
2019-03-03T23:02:05.282Z,70.70
2019-03-03T23:05:12.629Z,70.67
2019-03-03T23:08:04.039Z,70.59
2019-03-03T23:11:11.423Z,70.67
2019-03-03T23:14:02.940Z,70.67
2019-03-03T23:17:10.744Z,70.57
2019-03-03T23:20:02.619Z,71.14
2019-03-03T23:23:10.466Z,71.73
2019-03-03T23:25:59.955Z,71.64
2019-03-03T23:28:29.337Z,71.48
2019-03-03T23:31:38.399Z,72.14
2019-03-03T23:34:08.065Z,72.08
2019-03-03T23:36:37.884Z,72.03
2019-03-03T23:42:17.303Z,71.60
2019-03-03T23:48:02.157Z,71.55
2019-03-03T23:50:31.888Z,71.56
2019-03-03T23:53:20.328Z,72.25
